createdAt,value
2022-09-06T00:00:59.757Z,99985.41
2022-09-06T00:03:29.332Z,99982.06
2022-09-06T00:05:56.012Z,99993.44
2022-09-06T00:08:22.796Z,99991.78
2022-09-06T00:11:00.857Z,99986.47
2022-09-06T00:13:28.337Z,99986.22
2022-09-06T00:15:55.071Z,99985.06
2022-09-06T00:18:22.019Z,99984.06
2022-09-06T00:20:48.727Z,99975.50
2022-09-06T00:23:15.596Z,99983.25
2022-09-06T00:25:42.362Z,99975.91
2022-09-06T00:28:09.025Z,99972.56
2022-09-06T00:30:35.771Z,99983.56
2022-09-06T00:33:02.676Z,99974.03
2022-09-06T00:35:29.497Z,99981.47
2022-09-06T00:38:01.333Z,99990.13
2022-09-06T00:40:29.782Z,99989.50
2022-09-06T00:42:57.319Z,99980.81
2022-09-06T00:45:25.682Z,99983.72
2022-09-06T00:47:52.467Z,99979.81
2022-09-06T00:50:20.009Z,99981.03
2022-09-06T00:52:49.515Z,99976.00
2022-09-06T00:55:16.998Z,99977.22
2022-09-06T00:57:43.973Z,99973.78
2022-09-06T01:00:10.919Z,99970.38
2022-09-06T01:02:37.756Z,99969.34
2022-09-06T01:05:05.411Z,99969.75
2022-09-06T01:07:58.494Z,99980.56
2022-09-06T01:10:25.337Z,99977.91
2022-09-06T01:13:24.781Z,99975.78
2022-09-06T01:16:06.804Z,99982.09
2022-09-06T01:18:36.631Z,99980.41
2022-09-06T01:21:30.275Z,99974.78
2022-09-06T01:24:45.404Z,99985.34
2022-09-06T01:27:45.643Z,99981.78
2022-09-06T01:30:13.553Z,99994.09
2022-09-06T01:33:02.196Z,99994.22
2022-09-06T01:35:54.547Z,100007.16
2022-09-06T01:38:21.831Z,100002.91
2022-09-06T01:40:48.680Z,100001.41
2022-09-06T01:43:21.886Z,100003.00
2022-09-06T01:46:09.437Z,100003.78
2022-09-06T01:49:03.650Z,99990.88
2022-09-06T01:51:57.183Z,99996.41
2022-09-06T01:54:45.624Z,100000.19
2022-09-06T01:57:17.719Z,100005.56
2022-09-06T02:00:00.046Z,100010.69
2022-09-06T02:02:30.115Z,100000.03
2022-09-06T02:05:01.608Z,100014.56
2022-09-06T02:07:29.834Z,100014.44
2022-09-06T02:10:13.309Z,100020.91
2022-09-06T02:12:41.964Z,100041.63
2022-09-06T02:15:15.388Z,100123.25
2022-09-06T02:17:45.567Z,100060.47
2022-09-06T02:20:25.196Z,100065.72
2022-09-06T02:22:53.495Z,100058.84
2022-09-06T02:25:31.957Z,100053.03
2022-09-06T02:27:58.722Z,100079.25
2022-09-06T02:30:25.607Z,100095.06
2022-09-06T02:33:10.047Z,100094.31
2022-09-06T02:35:48.828Z,100101.19
2022-09-06T02:38:23.359Z,100079.69
2022-09-06T02:40:52.252Z,100079.09
2022-09-06T02:43:18.953Z,100065.81
2022-09-06T02:45:45.774Z,100072.25
2022-09-06T02:48:12.736Z,100075.38
2022-09-06T02:50:39.454Z,100068.97
2022-09-06T02:53:09.040Z,100056.47
2022-09-06T02:55:36.263Z,100042.16
2022-09-06T02:58:03.678Z,100035.09
2022-09-06T03:00:30.838Z,100035.94
2022-09-06T03:02:57.784Z,100026.56
2022-09-06T03:05:26.244Z,100009.34
2022-09-06T03:07:54.363Z,100003.72
2022-09-06T03:10:21.736Z,100004.13
2022-09-06T03:12:49.034Z,100011.97
2022-09-06T03:15:17.050Z,100008.88
2022-09-06T03:17:44.327Z,100006.16
2022-09-06T03:20:13.788Z,100026.53
2022-09-06T03:22:40.985Z,100034.38
2022-09-06T03:25:09.394Z,100038.16
2022-09-06T03:27:36.259Z,100031.28
2022-09-06T03:30:04.219Z,100022.09
2022-09-06T03:32:31.111Z,100022.09
2022-09-06T03:34:58.059Z,100021.72
2022-09-06T03:37:24.808Z,100011.09
2022-09-06T03:39:56.638Z,99977.19
2022-09-06T03:42:26.001Z,99967.50
2022-09-06T03:44:53.630Z,99960.44
2022-09-06T03:47:20.844Z,99960.44
2022-09-06T03:49:47.782Z,99982.38
2022-09-06T03:52:14.841Z,99998.53
2022-09-06T03:54:41.728Z,100000.59
2022-09-06T03:57:09.046Z,100006.56
2022-09-06T03:59:36.192Z,100014.00
2022-09-06T04:02:03.630Z,100025.78
2022-09-06T04:04:30.367Z,100021.41
2022-09-06T04:06:57.233Z,100022.00
2022-09-06T04:09:24.446Z,100017.19
2022-09-06T04:11:51.412Z,100016.94
2022-09-06T04:14:18.119Z,100008.84
2022-09-06T04:16:44.853Z,100002.19
2022-09-06T04:19:11.543Z,99988.88
2022-09-06T04:21:38.679Z,99980.78
2022-09-06T04:24:05.407Z,99980.28
2022-09-06T04:26:37.409Z,99978.94
2022-09-06T04:29:04.104Z,99972.59
2022-09-06T04:31:31.056Z,99973.56
2022-09-06T04:33:58.167Z,99970.88
2022-09-06T04:36:25.147Z,99965.91
2022-09-06T04:38:54.654Z,99965.63
2022-09-06T04:41:21.710Z,99958.16
2022-09-06T04:43:49.239Z,99950.47
2022-09-06T04:46:24.022Z,99948.94
2022-09-06T04:48:51.586Z,99952.50
2022-09-06T04:51:18.906Z,99946.84
2022-09-06T04:53:45.850Z,99961.19
2022-09-06T04:56:17.734Z,99969.16
2022-09-06T04:58:46.896Z,99967.69
2022-09-06T05:01:14.033Z,99974.97
2022-09-06T05:03:41.864Z,99989.63
2022-09-06T05:06:12.919Z,100004.22
2022-09-06T05:08:40.792Z,100009.94
2022-09-06T05:11:08.830Z,100016.34
2022-09-06T05:13:35.655Z,100013.28
2022-09-06T05:16:06.144Z,100015.91
2022-09-06T05:18:33.728Z,100010.69
2022-09-06T05:21:01.043Z,100017.28
2022-09-06T05:23:28.955Z,100015.34
2022-09-06T05:25:55.941Z,100021.13
2022-09-06T05:28:23.031Z,100015.06
2022-09-06T05:30:50.833Z,100031.28
2022-09-06T05:33:22.573Z,100023.41
2022-09-06T05:35:49.771Z,100019.41
2022-09-06T05:38:17.724Z,100018.03
2022-09-06T05:40:44.631Z,100025.72
2022-09-06T05:43:13.441Z,100031.81
2022-09-06T05:45:40.185Z,100019.25
2022-09-06T05:48:07.104Z,100029.91
2022-09-06T05:50:33.811Z,100029.31
2022-09-06T05:53:00.496Z,100036.38
2022-09-06T05:55:27.436Z,100037.97
2022-09-06T05:57:54.212Z,100038.63
2022-09-06T06:00:21.063Z,100048.56
2022-09-06T06:02:49.032Z,100053.59
2022-09-06T06:05:16.246Z,100042.97
2022-09-06T06:07:43.130Z,100058.59
2022-09-06T06:10:10.243Z,100054.66
2022-09-06T06:12:37.122Z,100059.88
2022-09-06T06:15:08.255Z,100057.63
2022-09-06T06:17:36.177Z,100063.41
2022-09-06T06:20:03.219Z,100066.09
2022-09-06T06:22:29.945Z,100062.31
2022-09-06T06:24:56.734Z,100064.19
2022-09-06T06:27:23.405Z,100069.75
2022-09-06T06:29:50.566Z,100058.97
2022-09-06T06:32:18.215Z,100059.06
2022-09-06T06:35:04.494Z,100054.66
2022-09-06T06:37:33.293Z,100055.31
2022-09-06T06:40:00.256Z,100066.56
2022-09-06T06:42:27.062Z,100061.19
2022-09-06T06:44:53.797Z,100057.50
2022-09-06T06:47:21.114Z,100061.22
2022-09-06T06:49:49.034Z,100061.47
2022-09-06T06:57:12.744Z,100049.09
2022-09-06T06:59:43.395Z,100052.94
2022-09-06T07:02:23.744Z,100051.88
2022-09-06T07:08:06.481Z,100056.16
2022-09-06T07:10:34.031Z,100051.75
2022-09-06T07:13:03.466Z,100054.09
2022-09-06T07:15:30.162Z,100053.13
2022-09-06T07:17:57.583Z,100056.91
2022-09-06T07:20:26.437Z,100055.69
2022-09-06T07:25:48.478Z,100061.25
2022-09-06T07:28:15.288Z,100057.47
2022-09-06T07:30:42.343Z,100049.44
2022-09-06T07:33:09.073Z,100060.16
2022-09-06T07:35:35.787Z,100058.50
2022-09-06T07:38:04.667Z,100057.13
2022-09-06T07:40:31.412Z,100059.88
2022-09-06T07:43:00.234Z,100059.53
2022-09-06T07:45:27.170Z,100071.16
2022-09-06T07:48:00.992Z,100070.91
2022-09-06T07:53:14.878Z,100057.47
2022-09-06T07:55:55.858Z,100056.28
2022-09-06T07:58:23.719Z,100060.88
2022-09-06T08:00:50.424Z,100058.22
2022-09-06T08:03:17.317Z,100063.81
2022-09-06T08:11:17.900Z,100059.25
2022-09-06T08:13:51.219Z,100059.84
2022-09-06T08:16:19.990Z,100052.63
2022-09-06T08:18:52.712Z,100056.34
2022-09-06T08:21:25.676Z,100053.25
2022-09-06T08:24:42.360Z,100056.09
2022-09-06T08:27:11.219Z,100053.72
2022-09-06T08:29:39.951Z,100057.25
2022-09-06T08:32:07.710Z,100050.81
2022-09-06T08:34:34.986Z,100049.97
2022-09-06T08:37:02.678Z,100050.63
2022-09-06T08:39:29.538Z,100047.88
2022-09-06T08:42:01.920Z,100047.47
2022-09-06T08:45:02.244Z,100047.22
2022-09-06T08:47:29.043Z,100045.22
2022-09-06T08:50:01.604Z,100049.78
2022-09-06T08:52:41.851Z,100054.22
2022-09-06T08:55:16.185Z,100051.09
2022-09-06T08:58:04.843Z,100041.53
2022-09-06T09:00:33.078Z,100044.28
2022-09-06T09:03:14.505Z,100043.25
2022-09-06T09:05:43.868Z,100035.16
2022-09-06T09:08:59.078Z,100035.31
2022-09-06T09:11:25.987Z,100037.88
2022-09-06T09:13:59.470Z,100035.81
2022-09-06T09:16:26.594Z,100030.63
2022-09-06T09:18:55.538Z,100035.41
2022-09-06T09:21:30.195Z,100028.97
2022-09-06T09:23:59.400Z,100029.19
2022-09-06T09:26:28.899Z,100025.03
2022-09-06T09:29:10.750Z,100023.78
2022-09-06T09:31:53.361Z,100016.31
2022-09-06T09:34:38.054Z,100010.91
2022-09-06T09:40:00.823Z,100016.94
2022-09-06T09:42:37.259Z,100014.44
2022-09-06T09:45:33.342Z,100004.69
2022-09-06T09:48:20.504Z,100010.72
2022-09-06T09:50:47.355Z,100007.19
2022-09-06T09:53:16.888Z,100002.88
2022-09-06T09:55:44.152Z,99998.91
2022-09-06T09:58:29.561Z,100001.00
2022-09-06T10:01:15.150Z,100002.44
2022-09-06T10:09:19.835Z,99989.75
2022-09-06T10:11:56.766Z,99991.38
2022-09-06T10:14:39.530Z,99987.63
2022-09-06T10:17:06.338Z,99971.59
2022-09-06T10:19:39.119Z,99980.75
2022-09-06T10:22:08.453Z,99978.88
2022-09-06T10:25:08.169Z,99985.13
2022-09-06T10:28:13.908Z,99976.53
2022-09-06T10:30:47.727Z,99973.81
2022-09-06T10:33:47.403Z,99976.72
2022-09-06T10:36:19.675Z,99977.16
2022-09-06T10:38:55.278Z,99967.38
2022-09-06T10:41:33.440Z,99963.41
2022-09-06T10:44:39.020Z,99951.75
2022-09-06T10:47:14.146Z,99942.75
2022-09-06T10:49:44.540Z,99950.03
2022-09-06T10:52:19.358Z,99940.22
2022-09-06T10:54:47.285Z,99947.72
2022-09-06T11:00:13.510Z,99948.97
2022-09-06T11:05:53.156Z,99942.91
2022-09-06T11:11:46.802Z,99934.97
2022-09-06T11:14:15.423Z,99929.91
2022-09-06T11:17:04.820Z,99923.25
2022-09-06T11:19:49.218Z,99925.13
2022-09-06T11:22:42.191Z,99929.84
2022-09-06T11:25:29.742Z,99912.97
2022-09-06T11:27:58.325Z,99911.41
2022-09-06T11:30:25.812Z,99909.31
2022-09-06T11:33:10.180Z,99907.06
2022-09-06T11:35:37.113Z,99912.00
2022-09-06T11:38:15.934Z,99905.97
2022-09-06T11:40:46.514Z,99904.03
2022-09-06T11:43:18.169Z,99912.16
2022-09-06T11:45:46.053Z,99909.84
2022-09-06T11:48:50.472Z,99895.28
2022-09-06T11:51:32.459Z,99903.59
2022-09-06T11:53:59.108Z,99895.16
2022-09-06T11:56:36.528Z,99888.69
2022-09-06T11:59:34.277Z,99894.97
2022-09-06T12:02:02.116Z,99902.38
2022-09-06T12:05:00.890Z,99898.88
2022-09-06T12:07:30.033Z,99905.25
2022-09-06T12:09:56.902Z,99900.19
2022-09-06T12:12:44.237Z,99901.25
2022-09-06T12:15:27.575Z,99899.53
2022-09-06T12:17:55.401Z,99884.03
2022-09-06T12:20:52.766Z,99888.00
2022-09-06T12:23:34.530Z,99890.50
2022-09-06T12:26:05.623Z,99883.09
2022-09-06T12:28:52.613Z,99874.97
2022-09-06T12:31:23.663Z,99873.47
2022-09-06T12:33:50.840Z,99877.13
2022-09-06T12:36:23.938Z,99867.91
2022-09-06T12:38:55.608Z,99871.69
2022-09-06T12:41:22.585Z,99865.97
2022-09-06T12:43:55.714Z,99859.72
2022-09-06T12:46:25.413Z,99860.34
2022-09-06T12:49:09.400Z,99856.41
2022-09-06T12:52:25.445Z,99854.16
2022-09-06T12:55:22.391Z,99849.31
2022-09-06T12:57:56.579Z,99845.22
2022-09-06T13:00:25.758Z,99841.63
2022-09-06T13:02:55.094Z,99838.44
2022-09-06T13:05:22.113Z,99837.16
2022-09-06T13:07:58.022Z,99834.09
2022-09-06T13:10:27.163Z,99838.59
2022-09-06T13:12:56.082Z,99835.88
2022-09-06T13:15:28.992Z,99827.25
2022-09-06T13:18:35.325Z,99827.94
2022-09-06T13:21:15.625Z,99829.31
2022-09-06T13:23:50.801Z,99829.66
2022-09-06T13:26:38.010Z,99825.66
2022-09-06T13:29:16.740Z,99821.44
2022-09-06T13:31:49.282Z,99819.06
2022-09-06T13:34:22.590Z,99818.78
2022-09-06T13:36:54.651Z,99824.66
2022-09-06T13:39:35.388Z,99819.22
2022-09-06T13:42:11.651Z,99816.06
2022-09-06T13:44:39.627Z,99807.78
2022-09-06T13:47:06.523Z,99808.41
2022-09-06T13:49:33.874Z,99814.44
2022-09-06T13:52:02.165Z,99809.59
2022-09-06T13:54:29.915Z,99803.09
2022-09-06T13:56:56.801Z,99803.72
2022-09-06T13:59:24.619Z,99799.13
2022-09-06T14:02:12.920Z,99801.06
2022-09-06T14:04:40.206Z,99803.03
2022-09-06T14:07:07.143Z,99793.00
2022-09-06T14:09:34.966Z,99793.34
2022-09-06T14:12:02.142Z,99779.53
2022-09-06T14:14:29.420Z,99784.28
2022-09-06T14:16:56.959Z,99785.91
2022-09-06T14:19:23.723Z,99785.91
2022-09-06T14:21:50.400Z,99777.53
2022-09-06T14:24:17.199Z,99778.97
2022-09-06T14:26:43.929Z,99760.53
2022-09-06T14:29:10.589Z,99769.03
2022-09-06T14:31:38.811Z,99760.66
2022-09-06T14:34:05.597Z,99768.94
2022-09-06T14:36:32.643Z,99761.34
2022-09-06T14:39:00.675Z,99758.41
2022-09-06T14:41:27.716Z,99749.16
2022-09-06T14:43:55.848Z,99744.34
2022-09-06T14:46:24.552Z,99742.44
2022-09-06T14:48:59.453Z,99738.06
2022-09-06T14:51:26.611Z,99746.13
2022-09-06T14:53:59.246Z,99736.06
2022-09-06T14:56:26.158Z,99745.28
2022-09-06T14:58:57.179Z,99739.84
2022-09-06T15:01:27.292Z,99753.44
2022-09-06T15:03:56.997Z,99750.16
2022-09-06T15:06:25.397Z,99749.53
2022-09-06T15:08:56.936Z,99750.84
2022-09-06T15:11:34.239Z,99755.09
2022-09-06T15:14:02.376Z,99749.66
2022-09-06T15:16:29.290Z,99748.00
2022-09-06T15:18:56.435Z,99754.75
2022-09-06T15:21:23.297Z,99745.50
2022-09-06T15:23:51.712Z,99739.47
2022-09-06T15:26:18.994Z,99739.25
2022-09-06T15:28:45.686Z,99736.31
2022-09-06T15:31:13.440Z,99735.00
2022-09-06T15:33:40.499Z,99732.84
2022-09-06T15:36:08.813Z,99728.84
2022-09-06T15:38:43.641Z,99729.09
2022-09-06T15:41:23.357Z,99720.94
2022-09-06T15:43:52.917Z,99711.00
2022-09-06T15:46:22.050Z,99709.91
2022-09-06T15:48:53.441Z,99706.97
2022-09-06T15:51:26.377Z,99709.91
2022-09-06T15:53:53.158Z,99693.97
2022-09-06T15:56:20.032Z,99688.28
2022-09-06T15:58:47.419Z,99695.38
2022-09-06T16:01:19.951Z,99703.78
2022-09-06T16:03:50.484Z,99698.81
2022-09-06T16:06:28.038Z,99703.19
2022-09-06T16:10:11.130Z,99699.41
2022-09-06T16:12:39.754Z,99705.91
2022-09-06T16:15:07.958Z,99705.91
2022-09-06T16:17:34.682Z,99709.69
2022-09-06T16:20:02.829Z,99701.75
2022-09-06T16:22:30.682Z,99700.13
2022-09-06T16:24:58.425Z,99705.78
2022-09-06T16:27:25.122Z,99697.88
2022-09-06T16:29:52.151Z,99697.06
2022-09-06T16:32:18.907Z,99698.69
2022-09-06T16:34:45.948Z,99701.41
2022-09-06T16:37:12.614Z,99701.41
2022-09-06T16:39:39.426Z,99708.50
2022-09-06T16:42:06.466Z,99710.41
2022-09-06T16:44:33.186Z,99709.34
2022-09-06T16:47:04.049Z,99706.63
2022-09-06T16:49:30.784Z,99706.84
2022-09-06T16:51:57.572Z,99700.59
2022-09-06T16:54:24.364Z,99703.53
2022-09-06T16:56:51.107Z,99711.69
2022-09-06T16:59:18.984Z,99719.84
2022-09-06T17:01:46.433Z,99718.22
2022-09-06T17:04:13.875Z,99717.97
2022-09-06T17:06:46.817Z,99714.69
2022-09-06T17:09:15.405Z,99711.09
2022-09-06T17:11:42.657Z,99719.75
2022-09-06T17:14:10.642Z,99715.38
2022-09-06T17:16:56.232Z,99719.16
2022-09-06T17:19:22.947Z,99714.44
2022-09-06T17:21:49.637Z,99717.38
2022-09-06T17:24:16.536Z,99720.81
2022-09-06T17:26:43.224Z,99713.13
2022-09-06T17:29:10.463Z,99715.03
2022-09-06T17:31:37.776Z,99712.53
2022-09-06T17:34:05.113Z,99704.84
2022-09-06T17:36:32.662Z,99699.63
2022-09-06T17:39:08.099Z,99696.81
2022-09-06T17:41:45.490Z,99693.75
2022-09-06T17:44:14.782Z,99690.53
2022-09-06T17:46:57.125Z,99696.19
2022-09-06T17:49:30.447Z,99703.19
2022-09-06T17:51:57.199Z,99704.94
2022-09-06T17:54:24.018Z,99710.69
2022-09-06T17:56:50.713Z,99705.03
2022-09-06T17:59:17.465Z,99709.63
2022-09-06T18:01:45.605Z,99712.56
2022-09-06T18:04:14.306Z,99711.97
2022-09-06T18:06:42.256Z,99698.25
2022-09-06T18:09:15.752Z,99711.50
2022-09-06T18:11:45.497Z,99705.84
2022-09-06T18:14:16.094Z,99703.94
2022-09-06T18:16:49.056Z,99700.63
2022-09-06T18:19:17.394Z,99704.78
2022-09-06T18:21:44.291Z,99699.34
2022-09-06T18:24:13.546Z,99702.53
2022-09-06T18:26:41.417Z,99694.84
2022-09-06T18:29:11.622Z,99695.06
2022-09-06T18:31:41.149Z,99693.88
2022-09-06T18:34:08.757Z,99700.16
2022-09-06T18:36:36.510Z,99691.50
2022-09-06T18:39:04.807Z,99699.75
2022-09-06T18:41:51.138Z,99706.09
2022-09-06T18:44:17.909Z,99717.78
2022-09-06T18:46:44.746Z,99717.88
2022-09-06T18:49:14.127Z,99711.63
2022-09-06T18:51:42.289Z,99722.94
2022-09-06T18:54:10.751Z,99718.56
2022-09-06T18:56:37.551Z,99715.84
2022-09-06T18:59:05.539Z,99723.41
2022-09-06T19:01:33.269Z,99723.44
2022-09-06T19:04:03.290Z,99726.00
2022-09-06T19:06:33.608Z,99722.34
2022-09-06T19:09:03.672Z,99720.16
2022-09-06T19:11:30.486Z,99712.72
2022-09-06T19:13:58.097Z,99714.38
2022-09-06T19:16:31.377Z,99718.69
2022-09-06T19:19:03.181Z,99716.72
2022-09-06T19:21:29.946Z,99718.16
2022-09-06T19:24:07.727Z,99712.13
2022-09-06T19:26:37.628Z,99718.44
2022-09-06T19:29:07.510Z,99713.56
2022-09-06T19:32:04.072Z,99709.25
2022-09-06T19:34:30.806Z,99712.66
2022-09-06T19:36:57.510Z,99712.50
2022-09-06T19:39:31.156Z,99709.03
2022-09-06T19:42:00.394Z,99701.06
2022-09-06T19:44:27.862Z,99697.88
2022-09-06T19:46:55.069Z,99695.47
2022-09-06T19:49:23.136Z,99692.16
2022-09-06T19:51:51.178Z,99691.34
2022-09-06T19:54:18.024Z,99686.53
2022-09-06T19:56:44.905Z,99689.50
2022-09-06T19:59:12.838Z,99693.03
2022-09-06T20:01:41.263Z,99697.38
2022-09-06T20:04:10.604Z,99699.78
2022-09-06T20:06:37.828Z,99694.16
2022-09-06T20:09:07.195Z,99693.75
2022-09-06T20:11:35.185Z,99695.81
2022-09-06T20:14:02.054Z,99691.97
2022-09-06T20:16:30.307Z,99687.22
2022-09-06T20:18:58.917Z,99690.78
2022-09-06T20:21:29.383Z,99690.38
2022-09-06T20:23:57.397Z,99687.47
2022-09-06T20:26:25.622Z,99676.81
2022-09-06T20:28:56.665Z,99690.06
2022-09-06T20:31:24.233Z,99689.84
2022-09-06T20:33:51.171Z,99686.28
2022-09-06T20:36:18.414Z,99688.44
2022-09-06T20:38:45.966Z,99681.94
2022-09-06T20:41:15.158Z,99686.59
2022-09-06T20:43:42.617Z,99684.13
2022-09-06T20:46:17.135Z,99696.28
2022-09-06T20:53:13.976Z,99704.47
2022-09-06T20:55:40.703Z,99703.88
2022-09-06T20:58:07.455Z,99703.72
2022-09-06T21:00:34.204Z,99706.19
2022-09-06T21:03:00.953Z,99712.25
2022-09-06T21:05:28.024Z,99705.19
2022-09-06T21:07:54.698Z,99716.25
2022-09-06T21:10:21.425Z,99712.34
2022-09-06T21:12:48.154Z,99708.41
2022-09-06T21:15:15.475Z,99715.31
2022-09-06T21:17:42.385Z,99716.59
2022-09-06T21:20:09.737Z,99721.34
2022-09-06T21:22:36.421Z,99713.69
2022-09-06T21:25:03.426Z,99707.00
2022-09-06T21:27:31.507Z,99710.97
2022-09-06T21:29:58.201Z,99713.72
2022-09-06T21:32:26.342Z,99720.56
2022-09-06T21:34:53.282Z,99713.75
2022-09-06T21:37:20.362Z,99721.88
2022-09-06T21:39:47.598Z,99721.09
2022-09-06T21:42:32.387Z,99717.38
2022-09-06T21:44:59.443Z,99720.91
2022-09-06T21:47:26.169Z,99719.03
2022-09-06T21:49:52.962Z,99719.06
2022-09-06T21:52:19.830Z,99711.84
2022-09-06T21:54:46.535Z,99708.72
2022-09-06T21:57:13.377Z,99702.69
2022-09-06T21:59:40.077Z,99704.34
2022-09-06T22:02:07.801Z,99702.47
2022-09-06T22:04:34.744Z,99694.44
2022-09-06T22:07:01.649Z,99699.44
2022-09-06T22:09:28.634Z,99694.69
2022-09-06T22:11:55.398Z,99697.97
2022-09-06T22:14:22.090Z,99687.16
2022-09-06T22:16:48.848Z,99688.78
2022-09-06T22:19:15.709Z,99701.06
2022-09-06T22:21:42.498Z,99705.03
2022-09-06T22:24:11.571Z,99711.94
2022-09-06T22:26:40.682Z,99706.09
2022-09-06T22:29:08.999Z,99704.63
2022-09-06T22:31:36.695Z,99709.22
2022-09-06T22:34:03.971Z,99719.63
2022-09-06T22:36:30.889Z,99718.41
2022-09-06T22:38:58.551Z,99711.94
2022-09-06T22:41:27.070Z,99715.28
2022-09-06T22:43:53.886Z,99707.81
2022-09-06T22:46:20.665Z,99699.69
2022-09-06T22:53:21.266Z,99693.91
2022-09-06T22:55:48.300Z,99696.41
2022-09-06T22:58:15.524Z,99688.72
2022-09-06T23:00:42.351Z,99696.41
2022-09-06T23:03:09.282Z,99685.81
2022-09-06T23:05:36.009Z,99685.81
2022-09-06T23:16:56.926Z,99671.53
2022-09-06T23:19:23.607Z,99684.19
2022-09-06T23:21:50.323Z,99674.66
2022-09-06T23:24:17.070Z,99675.91
2022-09-06T23:26:43.768Z,99679.44
2022-09-06T23:29:11.183Z,99664.25
2022-09-06T23:31:38.112Z,99672.00
2022-09-06T23:34:04.949Z,99665.34
2022-09-06T23:36:32.291Z,99665.56
2022-09-06T23:38:59.051Z,99657.66
2022-09-06T23:41:25.771Z,99656.59
2022-09-06T23:43:52.527Z,99651.44
2022-09-06T23:46:19.541Z,99646.63
2022-09-06T23:48:46.700Z,99645.41
2022-09-06T23:51:13.539Z,99642.91
2022-09-06T23:53:40.670Z,99651.44
2022-09-06T23:56:08.130Z,99649.75
2022-09-06T23:58:35.305Z,99660.38
